Darrouzett, Texas
Current Conditions -  °F | °C
As of 8:15 AM on Monday 22 Dec 2014 (Local Time) from KPYX Reporting Station
Broken Clouds Broken Clouds  
Wind Chill: 34°   Ceiling: 11000
Heat Index: 43°   Visibility: 10mi
Dew Point: 35°   Wind: 20mph
Humidity: 74%   Direction: 320°NW
Pressure: 29.69"   Gusts: NA
Location:  36.45°N, 100.32°W
Report Text: KPYX 221415Z AUTO 32017KT 10SM SCT100 BKN110 06/02 A2969 RMK AO2 T00590015
Loading
Personal Weather Stations






























Interactive Weather Map New forecast layout! Learn more

10-Day Weather Forecast

Advertisements
Track Severe Weather on mobile